sensor_id;sensor_type;location;lat;lon;timestamp;pressure;altitude;pressure_sealevel;temperature;humidity
56831;BME280;42713;42.676;23.352;2022-10-16T00:01:26;95401.13;;;10.55;70.08
56831;BME280;42713;42.676;23.352;2022-10-16T00:04:19;95407.63;;;10.52;72.78
56831;BME280;42713;42.676;23.352;2022-10-16T00:06:54;95406.38;;;10.55;72.85
56831;BME280;42713;42.676;23.352;2022-10-16T00:09:45;95419.03;;;10.70;73.26
56831;BME280;42713;42.676;23.352;2022-10-16T00:12:48;95400.03;;;10.63;72.48
56831;BME280;42713;42.676;23.352;2022-10-16T00:15:38;95412.78;;;10.71;71.09
56831;BME280;42713;42.676;23.352;2022-10-16T00:18:17;95413.22;;;10.68;71.94
56831;BME280;42713;42.676;23.352;2022-10-16T00:21:02;95420.50;;;10.78;72.38
56831;BME280;42713;42.676;23.352;2022-10-16T00:24:05;95422.25;;;10.72;70.90
56831;BME280;42713;42.676;23.352;2022-10-16T00:26:41;95418.56;;;10.61;73.09
56831;BME280;42713;42.676;23.352;2022-10-16T00:29:13;95412.06;;;10.52;70.48
56831;BME280;42713;42.676;23.352;2022-10-16T00:31:52;95417.63;;;10.55;70.17
56831;BME280;42713;42.676;23.352;2022-10-16T00:34:20;95434.84;;;10.63;70.61
56831;BME280;42713;42.676;23.352;2022-10-16T00:36:46;95424.78;;;10.48;70.74
56831;BME280;42713;42.676;23.352;2022-10-16T00:39:27;95424.41;;;10.33;72.79
56831;BME280;42713;42.676;23.352;2022-10-16T00:42:03;95432.41;;;10.38;70.74
56831;BME280;42713;42.676;23.352;2022-10-16T00:44:54;95440.06;;;10.51;71.39
56831;BME280;42713;42.676;23.352;2022-10-16T00:47:30;95415.97;;;10.31;70.34
56831;BME280;42713;42.676;23.352;2022-10-16T00:52:47;95414.44;;;10.23;72.79
56831;BME280;42713;42.676;23.352;2022-10-16T00:55:28;95412.41;;;10.25;72.17
56831;BME280;42713;42.676;23.352;2022-10-16T00:57:59;95421.19;;;10.31;72.06
56831;BME280;42713;42.676;23.352;2022-10-16T01:00:39;95421.78;;;10.33;71.49
56831;BME280;42713;42.676;23.352;2022-10-16T01:03:31;95445.75;;;10.48;71.52
56831;BME280;42713;42.676;23.352;2022-10-16T01:06:28;95442.78;;;10.45;71.47
56831;BME280;42713;42.676;23.352;2022-10-16T01:09:23;95441.91;;;10.32;71.46
56831;BME280;42713;42.676;23.352;2022-10-16T01:12:22;95452.72;;;10.36;72.78
56831;BME280;42713;42.676;23.352;2022-10-16T01:17:57;95429.88;;;10.12;71.02
56831;BME280;42713;42.676;23.352;2022-10-16T01:30:20;95425.47;;;10.13;71.07
56831;BME280;42713;42.676;23.352;2022-10-16T01:35:52;95432.66;;;10.18;72.73
56831;BME280;42713;42.676;23.352;2022-10-16T01:38:59;95412.59;;;9.93;71.83
56831;BME280;42713;42.676;23.352;2022-10-16T01:41:54;95424.25;;;9.97;71.54
56831;BME280;42713;42.676;23.352;2022-10-16T01:44:34;95413.28;;;9.88;71.79
56831;BME280;42713;42.676;23.352;2022-10-16T01:47:49;95433.53;;;9.93;72.10
56831;BME280;42713;42.676;23.352;2022-10-16T01:50:37;95431.34;;;9.90;71.34
56831;BME280;42713;42.676;23.352;2022-10-16T01:53:59;95433.84;;;9.85;71.81
56831;BME280;42713;42.676;23.352;2022-10-16T02:00:07;95436.25;;;9.68;72.85
56831;BME280;42713;42.676;23.352;2022-10-16T02:02:56;95445.34;;;9.65;71.95
56831;BME280;42713;42.676;23.352;2022-10-16T02:05:53;95456.16;;;9.69;73.09
56831;BME280;42713;42.676;23.352;2022-10-16T02:08:50;95443.59;;;9.40;74.72
56831;BME280;42713;42.676;23.352;2022-10-16T02:11:24;95445.38;;;9.40;74.74
56831;BME280;42713;42.676;23.352;2022-10-16T02:17:28;95447.69;;;9.29;75.75
56831;BME280;42713;42.676;23.352;2022-10-16T02:20:06;95451.91;;;9.30;75.85
56831;BME280;42713;42.676;23.352;2022-10-16T02:22:40;95458.88;;;9.37;74.02
56831;BME280;42713;42.676;23.352;2022-10-16T02:25:36;95449.94;;;9.26;73.96
56831;BME280;42713;42.676;23.352;2022-10-16T02:28:11;95449.59;;;9.22;73.58
56831;BME280;42713;42.676;23.352;2022-10-16T02:31:04;95459.88;;;9.17;75.37
56831;BME280;42713;42.676;23.352;2022-10-16T02:34:00;95466.94;;;9.16;74.84
56831;BME280;42713;42.676;23.352;2022-10-16T02:36:46;95464.34;;;9.10;76.08
56831;BME280;42713;42.676;23.352;2022-10-16T02:39:37;95473.38;;;9.14;74.91
56831;BME280;42713;42.676;23.352;2022-10-16T02:42:42;95466.56;;;9.13;74.43
56831;BME280;42713;42.676;23.352;2022-10-16T02:45:17;95462.16;;;9.07;75.48
56831;BME280;42713;42.676;23.352;2022-10-16T02:48:20;95465.50;;;8.95;76.98
56831;BME280;42713;42.676;23.352;2022-10-16T02:51:08;95465.91;;;8.92;77.19
56831;BME280;42713;42.676;23.352;2022-10-16T02:53:39;95466.06;;;8.97;75.89
56831;BME280;42713;42.676;23.352;2022-10-16T02:56:11;95468.91;;;8.96;74.84
56831;BME280;42713;42.676;23.352;2022-10-16T02:58:39;95478.16;;;8.92;75.41
56831;BME280;42713;42.676;23.352;2022-10-16T03:01:11;95478.38;;;8.90;75.54
56831;BME280;42713;42.676;23.352;2022-10-16T03:03:49;95472.00;;;8.86;75.81
56831;BME280;42713;42.676;23.352;2022-10-16T03:06:32;95473.19;;;8.83;75.05
56831;BME280;42713;42.676;23.352;2022-10-16T03:09:26;95493.06;;;8.91;74.48
56831;BME280;42713;42.676;23.352;2022-10-16T03:12:01;95479.84;;;8.86;74.71
56831;BME280;42713;42.676;23.352;2022-10-16T03:14:39;95481.03;;;8.83;74.68
56831;BME280;42713;42.676;23.352;2022-10-16T03:17:19;95485.13;;;8.72;76.10
56831;BME280;42713;42.676;23.352;2022-10-16T03:19:48;95487.56;;;8.67;76.08
56831;BME280;42713;42.676;23.352;2022-10-16T03:22:16;95491.41;;;8.65;75.88
56831;BME280;42713;42.676;23.352;2022-10-16T03:24:51;95488.78;;;8.65;74.21
56831;BME280;42713;42.676;23.352;2022-10-16T03:27:23;95484.81;;;8.62;75.91
56831;BME280;42713;42.676;23.352;2022-10-16T03:29:57;95493.50;;;8.56;76.60
56831;BME280;42713;42.676;23.352;2022-10-16T03:32:37;95495.69;;;8.52;75.83
56831;BME280;42713;42.676;23.352;2022-10-16T03:35:06;95493.69;;;8.54;75.38
56831;BME280;42713;42.676;23.352;2022-10-16T03:37:34;95504.94;;;8.55;76.91
56831;BME280;42713;42.676;23.352;2022-10-16T03:40:08;95504.13;;;8.54;76.21
56831;BME280;42713;42.676;23.352;2022-10-16T03:42:53;95508.53;;;8.61;75.10
56831;BME280;42713;42.676;23.352;2022-10-16T03:45:25;95491.06;;;8.54;74.75
56831;BME280;42713;42.676;23.352;2022-10-16T03:48:10;95493.00;;;8.66;73.84
56831;BME280;42713;42.676;23.352;2022-10-16T03:51:04;95501.22;;;8.69;73.43
56831;BME280;42713;42.676;23.352;2022-10-16T03:53:41;95488.19;;;8.63;73.20
56831;BME280;42713;42.676;23.352;2022-10-16T03:56:24;95482.03;;;8.57;74.00
56831;BME280;42713;42.676;23.352;2022-10-16T03:59:06;95497.59;;;8.70;74.45
56831;BME280;42713;42.676;23.352;2022-10-16T04:02:31;95498.22;;;8.66;74.46
56831;BME280;42713;42.676;23.352;2022-10-16T04:07:51;95491.88;;;8.55;74.35
56831;BME280;42713;42.676;23.352;2022-10-16T04:10:38;95488.50;;;8.48;73.84
56831;BME280;42713;42.676;23.352;2022-10-16T04:13:30;95485.47;;;8.44;73.69
56831;BME280;42713;42.676;23.352;2022-10-16T04:16:22;95491.31;;;8.39;73.60
56831;BME280;42713;42.676;23.352;2022-10-16T04:19:07;95489.72;;;8.38;73.51
56831;BME280;42713;42.676;23.352;2022-10-16T04:21:36;95490.94;;;8.36;73.36
56831;BME280;42713;42.676;23.352;2022-10-16T04:24:17;95499.59;;;8.36;73.78
56831;BME280;42713;42.676;23.352;2022-10-16T04:26:51;95497.53;;;8.38;74.33
56831;BME280;42713;42.676;23.352;2022-10-16T04:29:31;95487.97;;;8.25;74.81
56831;BME280;42713;42.676;23.352;2022-10-16T04:32:18;95500.63;;;8.29;75.24
56831;BME280;42713;42.676;23.352;2022-10-16T04:34:53;95498.78;;;8.29;75.03
56831;BME280;42713;42.676;23.352;2022-10-16T04:37:41;95513.44;;;8.30;75.28
56831;BME280;42713;42.676;23.352;2022-10-16T04:40:30;95524.47;;;8.39;75.60
56831;BME280;42713;42.676;23.352;2022-10-16T04:43:04;95515.69;;;8.26;75.33
56831;BME280;42713;42.676;23.352;2022-10-16T04:45:39;95524.88;;;8.36;74.90
56831;BME280;42713;42.676;23.352;2022-10-16T04:48:06;95514.06;;;8.32;74.82
56831;BME280;42713;42.676;23.352;2022-10-16T04:50:40;95515.44;;;8.35;74.26
56831;BME280;42713;42.676;23.352;2022-10-16T04:53:09;95529.09;;;8.37;73.51
56831;BME280;42713;42.676;23.352;2022-10-16T04:55:38;95523.88;;;8.30;72.82
56831;BME280;42713;42.676;23.352;2022-10-16T04:58:15;95530.94;;;8.30;73.63
56831;BME280;42713;42.676;23.352;2022-10-16T05:00:48;95524.72;;;8.24;73.25
56831;BME280;42713;42.676;23.352;2022-10-16T05:03:24;95526.53;;;8.23;73.24
56831;BME280;42713;42.676;23.352;2022-10-16T05:05:50;95534.97;;;8.19;74.41
56831;BME280;42713;42.676;23.352;2022-10-16T05:08:32;95544.38;;;8.33;73.45
56831;BME280;42713;42.676;23.352;2022-10-16T05:11:04;95532.72;;;8.29;74.23
56831;BME280;42713;42.676;23.352;2022-10-16T05:13:30;95532.34;;;8.25;75.31
56831;BME280;42713;42.676;23.352;2022-10-16T05:15:58;95545.00;;;8.22;76.30
56831;BME280;42713;42.676;23.352;2022-10-16T05:18:42;95539.19;;;8.20;75.24
56831;BME280;42713;42.676;23.352;2022-10-16T05:21:13;95554.44;;;8.30;75.01
56831;BME280;42713;42.676;23.352;2022-10-16T05:23:44;95552.44;;;8.25;75.24
56831;BME280;42713;42.676;23.352;2022-10-16T05:26:15;95556.44;;;8.28;76.50
56831;BME280;42713;42.676;23.352;2022-10-16T05:28:59;95542.00;;;8.25;74.99
56831;BME280;42713;42.676;23.352;2022-10-16T05:31:38;95557.81;;;8.37;75.59
56831;BME280;42713;42.676;23.352;2022-10-16T05:34:17;95547.34;;;8.37;75.62
56831;BME280;42713;42.676;23.352;2022-10-16T05:36:49;95553.56;;;8.43;75.42
56831;BME280;42713;42.676;23.352;2022-10-16T05:39:39;95559.38;;;8.45;74.73
56831;BME280;42713;42.676;23.352;2022-10-16T05:42:34;95553.94;;;8.53;74.18
56831;BME280;42713;42.676;23.352;2022-10-16T05:45:11;95548.13;;;8.51;74.97
56831;BME280;42713;42.676;23.352;2022-10-16T05:47:43;95580.56;;;8.68;75.08
56831;BME280;42713;42.676;23.352;2022-10-16T05:50:32;95568.38;;;8.62;74.65
56831;BME280;42713;42.676;23.352;2022-10-16T05:53:05;95563.16;;;8.62;74.49
56831;BME280;42713;42.676;23.352;2022-10-16T05:56:05;95568.72;;;8.72;74.60
56831;BME280;42713;42.676;23.352;2022-10-16T05:58:48;95585.75;;;8.82;74.93
56831;BME280;42713;42.676;23.352;2022-10-16T06:04:21;95587.13;;;8.84;74.48
56831;BME280;42713;42.676;23.352;2022-10-16T06:07:06;95589.34;;;8.87;74.17
56831;BME280;42713;42.676;23.352;2022-10-16T06:09:40;95590.72;;;8.90;73.80
56831;BME280;42713;42.676;23.352;2022-10-16T06:12:26;95593.91;;;8.99;73.80
56831;BME280;42713;42.676;23.352;2022-10-16T06:15:23;95599.28;;;9.04;73.49
56831;BME280;42713;42.676;23.352;2022-10-16T06:21:07;95599.25;;;9.11;72.91
56831;BME280;42713;42.676;23.352;2022-10-16T06:23:38;95608.84;;;9.17;73.46
56831;BME280;42713;42.676;23.352;2022-10-16T06:26:06;95606.63;;;9.21;72.73
56831;BME280;42713;42.676;23.352;2022-10-16T06:28:50;95610.19;;;9.26;73.10
56831;BME280;42713;42.676;23.352;2022-10-16T06:34:33;95605.38;;;9.30;72.62
56831;BME280;42713;42.676;23.352;2022-10-16T06:37:21;95612.94;;;9.38;73.24
56831;BME280;42713;42.676;23.352;2022-10-16T06:40:00;95614.94;;;9.43;72.67
56831;BME280;42713;42.676;23.352;2022-10-16T06:42:34;95610.84;;;9.47;72.33
56831;BME280;42713;42.676;23.352;2022-10-16T06:45:14;95623.66;;;9.55;72.68
56831;BME280;42713;42.676;23.352;2022-10-16T06:48:02;95615.81;;;9.55;72.49
56831;BME280;42713;42.676;23.352;2022-10-16T06:50:27;95633.25;;;9.68;72.59
56831;BME280;42713;42.676;23.352;2022-10-16T06:52:56;95636.22;;;9.72;71.81
56831;BME280;42713;42.676;23.352;2022-10-16T06:55:21;95647.81;;;9.82;70.95
56831;BME280;42713;42.676;23.352;2022-10-16T06:57:47;95647.16;;;9.87;70.94
56831;BME280;42713;42.676;23.352;2022-10-16T07:00:13;95651.75;;;9.92;71.25
56831;BME280;42713;42.676;23.352;2022-10-16T07:02:38;95663.41;;;9.96;71.07
56831;BME280;42713;42.676;23.352;2022-10-16T07:05:04;95655.91;;;10.00;70.96
56831;BME280;42713;42.676;23.352;2022-10-16T07:07:29;95658.13;;;10.03;70.83
56831;BME280;42713;42.676;23.352;2022-10-16T07:09:57;95650.41;;;10.08;71.51
56831;BME280;42713;42.676;23.352;2022-10-16T07:12:23;95656.22;;;10.10;70.31
56831;BME280;42713;42.676;23.352;2022-10-16T07:14:49;95650.56;;;10.13;70.16
56831;BME280;42713;42.676;23.352;2022-10-16T07:17:17;95656.97;;;10.17;70.35
56831;BME280;42713;42.676;23.352;2022-10-16T07:19:42;95668.97;;;10.25;70.40
56831;BME280;42713;42.676;23.352;2022-10-16T07:22:08;95667.16;;;10.25;69.98
56831;BME280;42713;42.676;23.352;2022-10-16T07:24:33;95655.47;;;10.28;68.81
56831;BME280;42713;42.676;23.352;2022-10-16T07:26:59;95665.06;;;10.34;70.12
56831;BME280;42713;42.676;23.352;2022-10-16T07:29:24;95671.50;;;10.38;70.03
56831;BME280;42713;42.676;23.352;2022-10-16T07:31:49;95675.88;;;10.45;69.64
56831;BME280;42713;42.676;23.352;2022-10-16T07:34:17;95668.38;;;10.48;69.59
56831;BME280;42713;42.676;23.352;2022-10-16T07:36:42;95662.91;;;10.50;69.15
56831;BME280;42713;42.676;23.352;2022-10-16T07:39:08;95662.84;;;10.56;69.66
56831;BME280;42713;42.676;23.352;2022-10-16T07:41:33;95664.03;;;10.61;69.13
56831;BME280;42713;42.676;23.352;2022-10-16T07:44:02;95670.75;;;10.68;69.63
56831;BME280;42713;42.676;23.352;2022-10-16T07:46:29;95671.72;;;10.74;69.62
56831;BME280;42713;42.676;23.352;2022-10-16T07:48:55;95666.63;;;10.79;70.10
56831;BME280;42713;42.676;23.352;2022-10-16T07:51:22;95663.78;;;10.81;69.79
56831;BME280;42713;42.676;23.352;2022-10-16T07:53:49;95667.69;;;10.90;68.84
56831;BME280;42713;42.676;23.352;2022-10-16T07:56:16;95665.66;;;10.92;68.54
56831;BME280;42713;42.676;23.352;2022-10-16T07:58:42;95670.84;;;10.99;68.05
56831;BME280;42713;42.676;23.352;2022-10-16T08:01:10;95679.84;;;11.03;69.07
56831;BME280;42713;42.676;23.352;2022-10-16T08:03:36;95669.94;;;11.05;68.12
56831;BME280;42713;42.676;23.352;2022-10-16T08:06:03;95679.56;;;11.11;68.19
56831;BME280;42713;42.676;23.352;2022-10-16T08:08:32;95673.66;;;11.16;68.78
56831;BME280;42713;42.676;23.352;2022-10-16T08:11:03;95669.44;;;11.15;68.76
56831;BME280;42713;42.676;23.352;2022-10-16T08:14:05;95661.19;;;11.11;68.35
56831;BME280;42713;42.676;23.352;2022-10-16T08:16:59;95675.41;;;11.34;67.83
56831;BME280;42713;42.676;23.352;2022-10-16T08:19:37;95660.13;;;11.31;67.35
56831;BME280;42713;42.676;23.352;2022-10-16T08:22:03;95650.78;;;11.35;67.87
56831;BME280;42713;42.676;23.352;2022-10-16T08:24:28;95668.16;;;11.48;68.15
56831;BME280;42713;42.676;23.352;2022-10-16T08:26:55;95659.41;;;11.54;67.52
56831;BME280;42713;42.676;23.352;2022-10-16T08:29:21;95669.81;;;11.61;67.11
56831;BME280;42713;42.676;23.352;2022-10-16T08:31:46;95665.25;;;11.68;67.49
56831;BME280;42713;42.676;23.352;2022-10-16T08:34:12;95668.56;;;11.75;68.34
56831;BME280;42713;42.676;23.352;2022-10-16T08:36:37;95658.53;;;11.84;67.03
56831;BME280;42713;42.676;23.352;2022-10-16T08:39:03;95666.06;;;11.92;66.47
56831;BME280;42713;42.676;23.352;2022-10-16T08:46:34;95663.94;;;12.13;65.70
56831;BME280;42713;42.676;23.352;2022-10-16T08:49:03;95668.97;;;12.14;67.28
56831;BME280;42713;42.676;23.352;2022-10-16T08:51:35;95665.06;;;12.17;68.70
56831;BME280;42713;42.676;23.352;2022-10-16T08:54:03;95673.53;;;12.31;67.11
56831;BME280;42713;42.676;23.352;2022-10-16T08:56:29;95671.13;;;12.41;66.81
56831;BME280;42713;42.676;23.352;2022-10-16T08:58:57;95675.47;;;12.48;65.58
56831;BME280;42713;42.676;23.352;2022-10-16T09:01:24;95664.97;;;12.48;65.09
56831;BME280;42713;42.676;23.352;2022-10-16T09:21:19;95660.66;;;13.52;57.88
56831;BME280;42713;42.676;23.352;2022-10-16T09:23:47;95667.75;;;13.51;57.40
56831;BME280;42713;42.676;23.352;2022-10-16T09:26:13;95668.28;;;13.53;56.99
56831;BME280;42713;42.676;23.352;2022-10-16T09:28:40;95663.28;;;13.52;58.83
56831;BME280;42713;42.676;23.352;2022-10-16T09:31:13;95666.53;;;13.59;58.85
56831;BME280;42713;42.676;23.352;2022-10-16T09:33:40;95663.91;;;13.59;60.31
56831;BME280;42713;42.676;23.352;2022-10-16T09:36:08;95663.53;;;13.50;60.23
56831;BME280;42713;42.676;23.352;2022-10-16T09:38:36;95658.03;;;13.69;58.04
56831;BME280;42713;42.676;23.352;2022-10-16T09:43:39;95664.34;;;13.85;57.25
56831;BME280;42713;42.676;23.352;2022-10-16T09:48:49;95647.59;;;13.91;55.62
56831;BME280;42713;42.676;23.352;2022-10-16T09:53:47;95647.50;;;13.86;56.20
56831;BME280;42713;42.676;23.352;2022-10-16T09:56:22;95641.69;;;13.84;55.49
56831;BME280;42713;42.676;23.352;2022-10-16T09:58:56;95645.25;;;13.95;55.18
56831;BME280;42713;42.676;23.352;2022-10-16T10:01:26;95650.53;;;13.95;55.36
56831;BME280;42713;42.676;23.352;2022-10-16T10:03:56;95646.59;;;13.97;53.20
56831;BME280;42713;42.676;23.352;2022-10-16T10:06:56;95639.59;;;14.03;54.24
56831;BME280;42713;42.676;23.352;2022-10-16T10:12:00;95631.69;;;14.03;54.77
56831;BME280;42713;42.676;23.352;2022-10-16T10:14:31;95628.72;;;14.16;54.16
56831;BME280;42713;42.676;23.352;2022-10-16T10:31:01;95624.81;;;14.41;52.02
56831;BME280;42713;42.676;23.352;2022-10-16T10:39:01;95615.19;;;14.69;55.05
56831;BME280;42713;42.676;23.352;2022-10-16T10:46:56;95604.94;;;14.95;53.88
56831;BME280;42713;42.676;23.352;2022-10-16T10:55:25;95597.16;;;15.10;49.66
56831;BME280;42713;42.676;23.352;2022-10-16T11:00:42;95594.91;;;15.24;49.26
56831;BME280;42713;42.676;23.352;2022-10-16T11:06:22;95581.66;;;15.47;48.68
56831;BME280;42713;42.676;23.352;2022-10-16T11:11:38;95578.72;;;15.76;50.23
56831;BME280;42713;42.676;23.352;2022-10-16T11:14:08;95578.72;;;15.81;49.93
56831;BME280;42713;42.676;23.352;2022-10-16T11:16:48;95580.63;;;15.85;47.19
56831;BME280;42713;42.676;23.352;2022-10-16T11:21:47;95575.44;;;15.96;46.49
56831;BME280;42713;42.676;23.352;2022-10-16T11:27:03;95575.78;;;16.10;47.81
56831;BME280;42713;42.676;23.352;2022-10-16T11:29:31;95568.09;;;16.08;48.08
56831;BME280;42713;42.676;23.352;2022-10-16T11:32:01;95575.31;;;16.23;45.92
56831;BME280;42713;42.676;23.352;2022-10-16T11:34:35;95572.47;;;16.35;47.77
56831;BME280;42713;42.676;23.352;2022-10-16T11:37:23;95566.84;;;16.26;46.64
56831;BME280;42713;42.676;23.352;2022-10-16T11:39:52;95552.34;;;16.34;47.30
56831;BME280;42713;42.676;23.352;2022-10-16T11:42:22;95569.94;;;16.66;46.81
56831;BME280;42713;42.676;23.352;2022-10-16T11:47:38;95570.75;;;16.77;45.17
56831;BME280;42713;42.676;23.352;2022-10-16T11:53:23;95574.03;;;17.00;45.02
56831;BME280;42713;42.676;23.352;2022-10-16T11:55:43;95576.19;;;17.13;45.39
56831;BME280;42713;42.676;23.352;2022-10-16T11:59:02;95577.50;;;17.21;45.41
56831;BME280;42713;42.676;23.352;2022-10-16T12:03:40;95569.31;;;17.48;44.05
56831;BME280;42713;42.676;23.352;2022-10-16T12:08:46;95565.31;;;17.82;43.30
56831;BME280;42713;42.676;23.352;2022-10-16T12:17:39;95563.66;;;18.27;42.17
56831;BME280;42713;42.676;23.352;2022-10-16T12:19:40;95564.09;;;18.55;41.09
56831;BME280;42713;42.676;23.352;2022-10-16T12:22:16;95563.72;;;18.72;39.56
56831;BME280;42713;42.676;23.352;2022-10-16T12:24:43;95555.47;;;18.84;39.98
56831;BME280;42713;42.676;23.352;2022-10-16T12:27:31;95572.31;;;19.09;39.38
56831;BME280;42713;42.676;23.352;2022-10-16T12:30:03;95558.38;;;19.27;38.98
56831;BME280;42713;42.676;23.352;2022-10-16T12:35:03;95556.19;;;19.69;37.59
56831;BME280;42713;42.676;23.352;2022-10-16T12:37:39;95560.88;;;19.88;37.54
56831;BME280;42713;42.676;23.352;2022-10-16T12:40:22;95563.66;;;20.02;37.66
56831;BME280;42713;42.676;23.352;2022-10-16T12:42:48;95563.16;;;20.24;37.51
56831;BME280;42713;42.676;23.352;2022-10-16T12:45:32;95554.41;;;20.43;37.19
56831;BME280;42713;42.676;23.352;2022-10-16T12:48:00;95557.63;;;20.64;37.53
56831;BME280;42713;42.676;23.352;2022-10-16T12:50:36;95562.88;;;20.93;37.80
56831;BME280;42713;42.676;23.352;2022-10-16T12:53:16;95565.97;;;21.20;37.50
56831;BME280;42713;42.676;23.352;2022-10-16T12:56:16;95563.06;;;21.35;36.74
56831;BME280;42713;42.676;23.352;2022-10-16T13:06:56;95568.81;;;22.36;33.54
56831;BME280;42713;42.676;23.352;2022-10-16T13:09:46;95572.91;;;22.62;32.84
56831;BME280;42713;42.676;23.352;2022-10-16T13:12:32;95567.03;;;22.88;32.41
56831;BME280;42713;42.676;23.352;2022-10-16T13:20:20;95565.41;;;23.60;31.31
56831;BME280;42713;42.676;23.352;2022-10-16T13:25:35;95561.28;;;24.08;30.28
56831;BME280;42713;42.676;23.352;2022-10-16T13:28:08;95558.38;;;24.27;29.24
56831;BME280;42713;42.676;23.352;2022-10-16T13:30:40;95562.38;;;24.47;28.92
56831;BME280;42713;42.676;23.352;2022-10-16T13:35:35;95562.22;;;24.93;28.74
56831;BME280;42713;42.676;23.352;2022-10-16T13:38:16;95563.13;;;25.14;29.37
56831;BME280;42713;42.676;23.352;2022-10-16T13:40:56;95564.25;;;25.31;28.43
56831;BME280;42713;42.676;23.352;2022-10-16T13:43:26;95569.97;;;25.47;28.07
56831;BME280;42713;42.676;23.352;2022-10-16T13:46:19;95576.56;;;25.67;28.19
56831;BME280;42713;42.676;23.352;2022-10-16T13:49:17;95569.91;;;25.82;28.02
56831;BME280;42713;42.676;23.352;2022-10-16T13:51:54;95566.38;;;25.99;28.07
56831;BME280;42713;42.676;23.352;2022-10-16T13:54:20;95569.84;;;26.08;28.14
56831;BME280;42713;42.676;23.352;2022-10-16T13:56:45;95562.56;;;26.18;28.05
56831;BME280;42713;42.676;23.352;2022-10-16T13:59:33;95566.91;;;26.31;28.22
56831;BME280;42713;42.676;23.352;2022-10-16T14:01:59;95564.19;;;26.40;28.05
56831;BME280;42713;42.676;23.352;2022-10-16T14:04:30;95573.94;;;26.53;28.17
56831;BME280;42713;42.676;23.352;2022-10-16T14:06:57;95567.41;;;26.63;27.68
56831;BME280;42713;42.676;23.352;2022-10-16T14:09:28;95560.75;;;26.69;27.38
56831;BME280;42713;42.676;23.352;2022-10-16T14:11:58;95565.78;;;26.71;27.98
56831;BME280;42713;42.676;23.352;2022-10-16T14:14:24;95569.06;;;26.77;27.47
56831;BME280;42713;42.676;23.352;2022-10-16T14:16:52;95571.19;;;26.92;27.95
56831;BME280;42713;42.676;23.352;2022-10-16T14:19:26;95586.16;;;27.02;27.26
56831;BME280;42713;42.676;23.352;2022-10-16T14:21:52;95580.94;;;27.06;26.68
56831;BME280;42713;42.676;23.352;2022-10-16T14:29:29;95583.53;;;27.14;25.70
56831;BME280;42713;42.676;23.352;2022-10-16T14:32:01;95588.09;;;27.23;25.74
56831;BME280;42713;42.676;23.352;2022-10-16T14:34:37;95584.94;;;27.21;26.40
56831;BME280;42713;42.676;23.352;2022-10-16T14:37:28;95581.97;;;27.13;26.00
56831;BME280;42713;42.676;23.352;2022-10-16T14:39:55;95590.09;;;27.05;24.77
56831;BME280;42713;42.676;23.352;2022-10-16T14:42:23;95593.56;;;27.05;26.23
56831;BME280;42713;42.676;23.352;2022-10-16T14:44:50;95595.81;;;27.03;25.20
56831;BME280;42713;42.676;23.352;2022-10-16T14:47:20;95605.44;;;27.04;26.08
56831;BME280;42713;42.676;23.352;2022-10-16T14:49:52;95598.75;;;26.89;25.19
56831;BME280;42713;42.676;23.352;2022-10-16T14:52:20;95603.06;;;26.81;25.12
56831;BME280;42713;42.676;23.352;2022-10-16T14:54:49;95599.44;;;26.77;26.42
56831;BME280;42713;42.676;23.352;2022-10-16T14:57:24;95605.94;;;26.67;25.90
56831;BME280;42713;42.676;23.352;2022-10-16T14:59:52;95607.91;;;26.49;26.12
56831;BME280;42713;42.676;23.352;2022-10-16T15:02:27;95606.06;;;26.41;26.08
56831;BME280;42713;42.676;23.352;2022-10-16T15:04:53;95610.53;;;26.28;25.97
56831;BME280;42713;42.676;23.352;2022-10-16T15:07:19;95608.03;;;26.05;26.41
56831;BME280;42713;42.676;23.352;2022-10-16T15:09:45;95615.00;;;25.98;26.77
56831;BME280;42713;42.676;23.352;2022-10-16T15:12:10;95609.34;;;25.82;27.39
56831;BME280;42713;42.676;23.352;2022-10-16T15:14:37;95607.16;;;25.75;28.08
56831;BME280;42713;42.676;23.352;2022-10-16T15:17:02;95616.50;;;25.51;26.67
56831;BME280;42713;42.676;23.352;2022-10-16T15:19:28;95613.94;;;25.28;27.42
56831;BME280;42713;42.676;23.352;2022-10-16T15:21:53;95614.22;;;25.00;28.28
56831;BME280;42713;42.676;23.352;2022-10-16T15:24:19;95614.63;;;24.76;28.49
56831;BME280;42713;42.676;23.352;2022-10-16T15:26:45;95607.56;;;24.40;28.28
56831;BME280;42713;42.676;23.352;2022-10-16T15:29:14;95624.78;;;23.93;29.35
56831;BME280;42713;42.676;23.352;2022-10-16T15:31:39;95628.47;;;23.38;30.59
56831;BME280;42713;42.676;23.352;2022-10-16T15:34:08;95630.44;;;22.82;31.45
56831;BME280;42713;42.676;23.352;2022-10-16T15:36:38;95641.78;;;22.32;31.47
56831;BME280;42713;42.676;23.352;2022-10-16T15:39:15;95639.19;;;21.80;32.78
56831;BME280;42713;42.676;23.352;2022-10-16T15:41:42;95644.81;;;21.40;32.62
56831;BME280;42713;42.676;23.352;2022-10-16T15:44:07;95650.88;;;21.02;35.70
56831;BME280;42713;42.676;23.352;2022-10-16T15:46:33;95654.97;;;20.70;36.07
56831;BME280;42713;42.676;23.352;2022-10-16T15:49:00;95656.38;;;20.38;36.63
56831;BME280;42713;42.676;23.352;2022-10-16T15:51:26;95656.13;;;20.10;36.58
56831;BME280;42713;42.676;23.352;2022-10-16T15:53:59;95666.69;;;19.86;37.07
56831;BME280;42713;42.676;23.352;2022-10-16T15:56:26;95661.72;;;19.69;37.32
56831;BME280;42713;42.676;23.352;2022-10-16T15:58:53;95667.41;;;19.52;37.81
56831;BME280;42713;42.676;23.352;2022-10-16T16:01:19;95671.53;;;19.34;36.74
56831;BME280;42713;42.676;23.352;2022-10-16T16:03:45;95676.94;;;19.13;40.31
56831;BME280;42713;42.676;23.352;2022-10-16T16:06:11;95678.81;;;19.02;38.82
56831;BME280;42713;42.676;23.352;2022-10-16T16:08:38;95683.63;;;18.95;38.60
56831;BME280;42713;42.676;23.352;2022-10-16T16:11:10;95682.88;;;18.84;39.15
56831;BME280;42713;42.676;23.352;2022-10-16T16:13:36;95687.41;;;18.73;39.77